Latest Weather Observations for Victoria River Downs

IDD60801

Issued at 9:05 pm CST Friday 19 September 2014 (issued every 30 minutes, with the page automatically refreshed every 10 minutes)

About weather observations | Map of weather stations | Latest weather observations for NT | Other Formats
Station Details ID: 014825 Name: VICTORIA RIVER DOWNS Lat: -16.40 Lon: 131.01 Height: 88.5 m
Data from the previous 72 hours. | See also: Recent months at Victoria River Downs
Date/Time
CST
Temp
°C
App
Temp
°C
Dew
Point
Rel
Hum
%
Delta-T
°C
Wind Press
QNH
hPa
Press
MSL
hPa
Rain
since 9 am
mm
Dir
 
Spd
km/h
Gust
km/h
Spd
kts
Gust
kts
19/09:00pm 23.5 21.7 1.2 23 10.4 S 0 0 0 0 1013.6 1013.0 0.0
19/08:30pm 24.9 23.9 5.7 29 9.8 E 0 0 0 0 1013.3 - 0.0
19/08:00pm 26.4 24.2 -1.4 16 12.7 CALM 0 0 0 0 1013.0 - 0.0
19/07:30pm 28.1 26.0 -0.9 15 13.5 CALM 0 0 0 0 1012.7 - 0.0
19/07:18pm 29.0 26.8 -1.2 14 14.1 CALM 0 0 0 0 1012.5 - 0.0
19/07:00pm 30.8 28.1 0.2 14 14.8 ENE 4 6 2 3 1012.2 - 0.0
19/06:30pm 33.9 30.3 -2.0 10 17.1 E 7 9 4 5 1011.8 - 0.0
19/06:00pm 35.9 31.6 -1.9 9 18.3 E 11 13 6 7 1011.4 1010.9 0.0
19/05:30pm 36.7 31.3 -1.3 9 18.6 ENE 17 26 9 14 1011.2 - 0.0
19/05:00pm 37.0 32.2 -2.7 8 19.1 E 13 19 7 10 1011.0 - 0.0
19/04:30pm 37.2 31.6 -2.5 8 19.2 ENE 17 32 9 17 1011.0 - 0.0
19/04:00pm 37.9 33.6 -2.0 8 19.5 E 11 17 6 9 1011.0 - 0.0
19/03:30pm 37.9 33.6 -2.0 8 19.5 ENE 11 17 6 9 1011.2 - 0.0
19/03:00pm 37.6 32.7 -0.6 9 19.1 E 15 28 8 15 1011.6 1011.0 0.0
19/02:30pm 37.6 32.9 0.8 10 18.8 NE 15 30 8 16 1012.0 - 0.0
19/02:00pm 37.5 32.4 0.7 10 18.7 ENE 17 37 9 20 1012.7 - 0.0
19/01:30pm 36.2 31.0 -0.2 10 18.1 ENE 17 28 9 15 1013.3 - 0.0
19/01:00pm 36.9 31.7 0.3 10 18.4 ENE 17 28 9 15 1013.9 - 0.0
19/12:30pm 35.3 30.5 2.7 13 16.9 NNE 17 32 9 17 1014.6 - 0.0
19/12:00pm 35.0 30.4 3.5 14 16.5 NE 17 28 9 15 1015.3 1014.7 0.0
19/11:30am 34.4 30.1 3.1 14 16.2 NNE 15 24 8 13 1015.8 - 0.0
19/11:00am 34.2 29.5 2.9 14 16.2 NNE 17 28 9 15 1016.2 - 0.0
19/10:30am 33.6 29.1 2.4 14 15.9 NNE 15 26 8 14 1016.5 - 0.0
19/10:00am 32.4 29.0 5.8 19 14.3 N 13 19 7 10 1016.8 - 0.0
19/09:30am 29.8 28.5 5.8 22 12.7 S 2 7 1 4 1016.9 - 0.0
19/09:00am 27.0 25.7 5.9 26 11.0 SSE 2 7 1 4 1017.0 1016.5 0.0
19/08:30am 24.8 23.8 5.6 29 9.8 CALM 0 6 0 3 1016.9 - 0.0
19/08:24am 24.1 22.2 5.0 29 9.6 E 4 7 2 4 1016.9 - 0.0
19/08:00am 22.1 21.0 5.1 33 8.5 CALM 0 7 0 4 1016.5 - 0.0
19/07:30am 19.1 16.9 5.2 40 6.8 N 6 7 3 4 1016.1 - 0.0
19/07:00am 17.1 15.8 9.8 62 3.9 E 7 11 4 6 1015.8 - 0.0
19/06:30am 16.2 13.4 2.9 41 6.1 NE 7 11 4 6 1015.5 - 0.0
19/06:00am 16.5 13.9 6.1 50 5.1 ENE 9 11 5 6 1015.0 1014.4 0.0
19/05:30am 16.3 - 5.9 50 5.1 - - - - - 1014.6 - 0.0
19/05:00am 16.7 15.3 3.7 42 6.1 CALM 0 0 0 0 1014.4 - 0.0
19/04:30am 17.2 15.9 7.5 53 4.9 E 4 9 2 5 1014.3 - 0.0
19/04:00am 17.0 15.2 3.7 41 6.2 ENE 2 6 1 3 1014.2 - 0.0
19/03:30am 18.1 15.8 5.0 42 6.3 NE 6 7 3 4 1014.3 - 0.0
19/03:00am 19.0 16.9 6.5 44 6.3 S 7 9 4 5 1014.3 1013.7 0.0
19/02:30am 18.4 15.5 2.7 35 7.3 NE 7 9 4 5 1014.4 - 0.0
19/02:00am 20.1 17.8 5.7 39 7.2 ESE 7 9 4 5 1014.6 - 0.0
19/01:30am 20.3 16.8 3.5 33 8.0 ENE 11 26 6 14 1014.7 - 0.0
19/01:00am 20.0 17.3 2.8 32 8.1 N 6 7 3 4 1014.5 - 0.0
19/12:30am 21.0 18.5 3.7 32 8.3 WSW 6 9 3 5 1014.4 - 0.0
19/12:00am 21.3 19.9 3.5 31 8.5 WSW 0 0 0 0 1014.6 1014.0 0.0
 
Date/Time
CST
Temp
°C
App
Temp
°C
Dew
Point
Rel
Hum
%
Delta-T
°C
Wind Press
QNH
hPa
Press
MSL
hPa
Rain
since 9 am
mm
Dir
 
Spd
km/h
Gust
km/h
Spd
kts
Gust
kts
18/11:30pm 22.3 21.1 4.8 32 8.7 CALM 0 4 0 2 1014.7 - 0.0
18/11:00pm 22.0 20.0 4.6 32 8.6 WNW 4 9 2 5 1014.7 - 0.0
18/10:30pm 22.5 20.3 5.4 33 8.6 WSW 6 7 3 4 1014.8 - 0.0
18/10:00pm 22.9 20.3 4.4 30 9.1 WSW 7 9 4 5 1014.7 - 0.0
18/09:30pm 23.8 20.9 1.4 23 10.5 W 6 7 3 4 1014.4 - 0.0
18/09:00pm 24.7 22.8 2.8 24 10.6 NE 2 6 1 3 1014.3 1013.7 0.0
18/08:30pm 25.7 22.9 1.8 21 11.5 ENE 6 7 3 4 1014.1 - 0.0
18/08:00pm 27.1 24.1 0.8 18 12.5 ENE 6 7 3 4 1013.7 - 0.0
18/07:30pm 29.5 26.4 0.2 15 14.0 NE 6 6 3 3 1013.1 - 0.0
18/07:00pm 31.7 28.0 -0.1 13 15.4 ENE 9 13 5 7 1012.7 - 0.0
18/06:30pm 33.9 30.3 0.5 12 16.6 ENE 9 13 5 7 1012.2 - 0.0
18/06:00pm 35.2 31.4 -1.0 10 17.7 E 9 17 5 9 1011.9 1011.3 0.0
18/05:30pm 36.0 31.9 -0.4 10 18.0 ENE 11 15 6 8 1011.7 - 0.0
18/05:00pm 36.2 31.3 -0.2 10 18.1 E 15 20 8 11 1011.7 - 0.0
18/04:30pm 36.7 31.7 -1.3 9 18.6 ENE 15 20 8 11 1011.4 - 0.0
18/04:00pm 36.6 32.3 -1.4 9 18.6 NE 11 22 6 12 1011.8 - 0.0
18/03:30pm 36.7 31.3 -1.3 9 18.6 NE 17 26 9 14 1012.2 - 0.0
18/03:00pm 36.9 32.1 0.3 10 18.5 E 15 24 8 13 1012.4 1011.8 0.0
18/02:30pm 37.0 32.6 0.4 10 18.5 E 13 26 7 14 1012.9 - 0.0
18/02:00pm 36.5 32.0 0.0 10 18.3 NE 13 37 7 20 1013.5 - 0.0
18/01:30pm 36.4 32.5 1.2 11 17.9 ESE 11 19 6 10 1014.1 - 0.0
18/01:00pm 35.7 32.1 3.0 13 17.1 SE 11 26 6 14 1014.7 - 0.0
18/12:30pm 36.6 32.2 4.8 14 17.2 NNE 17 28 9 15 1015.5 - 0.0
18/12:00pm 35.1 31.6 8.8 20 15.0 NNE 17 32 9 17 1016.2 1015.8 0.0
18/11:30am 34.1 31.0 7.2 19 14.9 NNE 13 28 7 15 1016.9 - 0.0
18/11:00am 32.9 29.0 7.0 20 14.2 NE 17 26 9 14 1017.3 - 0.0
18/10:30am 32.3 28.2 7.9 22 13.5 NNE 19 28 10 15 1017.9 - 0.0
18/10:00am 31.2 29.1 11.1 29 11.7 N 13 20 7 11 1018.0 - 0.0
18/09:30am 29.8 28.1 12.3 34 10.3 NNE 13 17 7 9 1017.9 - 0.0
18/09:00am 27.5 25.1 11.5 37 9.2 NNE 15 22 8 12 1017.8 1017.3 0.0
18/08:30am 26.4 23.7 8.8 33 9.6 ENE 13 17 7 9 1017.5 - 0.0
18/08:18am 25.5 22.9 7.6 32 9.5 ENE 11 17 6 9 1017.2 - 0.0
18/08:00am 24.2 22.3 7.4 34 8.8 E 7 11 4 6 1017.1 - 0.0
18/07:30am 20.6 19.1 8.6 46 6.3 E 6 9 3 5 1016.7 - 0.0
18/07:00am 19.8 18.7 8.5 48 5.9 E 4 9 2 5 1016.4 - 0.0
18/06:30am 19.7 18.2 8.4 48 5.9 ENE 6 7 3 4 1015.9 - 0.0
18/06:00am 19.5 17.1 6.9 44 6.4 NNE 9 13 5 7 1015.6 1015.0 0.0
18/05:30am 20.4 19.6 6.7 41 7.0 CALM 0 0 0 0 1015.1 - 0.0
18/05:00am 22.5 20.1 4.5 31 8.9 NE 6 9 3 5 1014.7 - 0.0
18/04:30am 22.8 19.7 3.4 28 9.4 NE 9 13 5 7 1014.3 - 0.0
18/04:00am 24.2 19.8 2.9 25 10.3 ENE 15 19 8 10 1014.1 - 0.0
18/03:30am 25.0 20.7 3.0 24 10.7 ENE 15 19 8 10 1013.9 - 0.0
18/03:00am 23.5 20.6 4.9 30 9.3 E 9 11 5 6 1013.9 1013.2 0.0
18/02:30am 22.3 19.8 4.8 32 8.7 ENE 7 9 4 5 1013.9 - 0.0
18/02:00am 21.1 19.8 7.7 42 7.0 ESE 4 9 2 5 1014.0 - 0.0
18/01:30am 21.1 20.5 7.3 41 7.1 CALM 0 0 0 0 1014.1 - 0.0
18/01:00am 22.2 21.5 6.8 37 7.9 CALM 0 0 0 0 1014.2 - 0.0
18/12:30am 22.2 21.5 6.8 37 7.9 CALM 0 0 0 0 1014.4 - 0.0
18/12:00am 22.7 22.3 8.4 40 7.6 CALM 0 0 0 0 1014.5 1013.9 0.0
 
Date/Time
CST
Temp
°C
App
Temp
°C
Dew
Point
Rel
Hum
%
Delta-T
°C
Wind Press
QNH
hPa
Press
MSL
hPa
Rain
since 9 am
mm
Dir
 
Spd
km/h
Gust
km/h
Spd
kts
Gust
kts
17/11:30pm 22.6 22.0 7.2 37 8.0 CALM 0 0 0 0 1014.3 - 0.0
17/11:00pm 23.7 22.9 6.5 33 8.9 CALM 0 0 0 0 1014.3 - 0.0
17/10:30pm 24.1 23.3 6.4 32 9.1 CALM 0 0 0 0 1014.3 - 0.0
17/10:00pm 25.0 24.6 8.1 34 9.0 CALM 0 0 0 0 1014.3 - 0.0
17/09:30pm 25.2 24.5 6.9 31 9.6 CALM 0 0 0 0 1014.2 - 0.0
17/09:00pm 26.3 26.0 8.8 33 9.6 CALM 0 0 0 0 1013.8 1013.2 0.0
17/08:30pm 27.4 26.7 6.8 27 10.9 CALM 0 0 0 0 1013.4 - 0.0
17/08:00pm 28.6 27.3 6.1 24 11.9 ENE 2 6 1 3 1013.0 - 0.0
17/07:30pm 29.8 27.7 6.5 23 12.5 ENE 7 7 4 4 1012.6 - 0.0
17/07:00pm 31.6 29.7 6.6 21 13.5 ESE 6 7 3 4 1012.2 - 0.0
17/06:30pm 33.8 31.2 6.2 18 15.0 E 9 11 5 6 1011.7 - 0.0
17/06:00pm 35.1 31.4 4.6 15 16.3 E 13 28 7 15 1011.3 1010.7 0.0
17/05:30pm 35.4 32.7 3.8 14 16.7 NE 7 11 4 6 1011.0 - 0.0
17/05:00pm 35.8 32.8 4.2 14 16.8 E 9 13 5 7 1010.9 - 0.0
17/04:30pm 35.9 32.3 5.2 15 16.6 E 13 26 7 14 1010.7 - 0.0
17/04:00pm 36.6 34.3 5.8 15 16.9 E 7 13 4 7 1010.6 - 0.0
17/03:30pm 36.2 32.3 5.5 15 16.7 E 15 26 8 14 1010.9 - 0.0
17/03:00pm 36.5 34.0 4.7 14 17.1 N 7 15 4 8 1011.0 1010.6 0.0
17/02:30pm 35.4 31.2 5.8 16 16.1 ENE 17 26 9 14 1011.7 - 0.0
17/02:00pm 35.9 33.3 7.9 18 15.8 ENE 11 20 6 11 1012.1 - 0.0
17/01:30pm 35.3 32.6 7.4 18 15.6 NE 11 24 6 13 1012.7 - 0.0
17/01:00pm 35.5 32.1 7.5 18 15.7 NE 15 30 8 16 1013.4 - 0.0
17/12:30pm 34.7 32.1 7.7 19 15.1 E 11 30 6 16 1014.0 - 0.0
17/12:00pm 33.8 30.8 7.7 20 14.5 ENE 13 20 7 11 1014.3 1013.8 0.0
17/11:30am 34.1 31.6 8.0 20 14.6 NNW 11 22 6 12 1014.8 - 0.0
17/11:00am 32.2 29.6 7.8 22 13.5 N 11 28 6 15 1015.2 - 0.0
17/10:30am 31.4 29.1 9.0 25 12.6 N 11 17 6 9 1015.7 - 0.0
17/10:00am 29.9 28.0 8.9 27 11.7 N 9 13 5 7 1015.8 - 0.0
17/09:30am 28.3 26.0 9.1 30 10.6 NE 11 17 6 9 1015.8 - 0.0
17/09:00am 27.1 23.9 8.5 31 10.1 NE 15 19 8 10 1015.7 1015.0 0.0
17/08:30am 25.1 22.3 8.6 35 8.9 ENE 13 17 7 9 1015.4 - 0.0
17/08:00am 23.8 22.3 8.6 38 8.2 E 6 9 3 5 1015.2 - 0.0
17/07:30am 21.3 19.3 8.6 44 6.7 ENE 9 9 5 5 1014.6 - 0.0
17/07:00am 18.5 18.4 9.3 55 4.8 CALM 0 0 0 0 1014.1 - 0.0
17/06:30am 20.4 18.5 7.4 43 6.7 ENE 7 11 4 6 1013.7 - 0.0
17/06:00am 21.7 19.6 8.2 42 7.1 E 9 11 5 6 1013.4 1012.8 0.0
17/05:30am 20.5 17.9 7.8 44 6.6 ENE 11 13 6 7 1012.9 - 0.0
17/05:00am 18.1 16.6 10.5 61 4.1 ENE 9 11 5 6 1012.7 - 0.0
17/04:30am 17.5 16.3 4.8 43 6.1 CALM 0 0 0 0 1012.2 - 0.0
17/04:00am 18.1 17.4 6.9 48 5.6 CALM 0 0 0 0 1012.1 - 0.0
17/03:30am 19.2 18.0 9.7 54 5.1 ESE 6 9 3 5 1012.1 - 0.0
17/03:00am 19.8 17.9 7.5 45 6.3 E 7 9 4 5 1012.3 1011.7 0.0
17/02:30am 19.9 18.7 4.8 37 7.4 CALM 0 6 0 3 1012.2 - 0.0
17/02:00am 19.7 16.9 5.0 38 7.2 NW 9 13 5 7 1012.2 - 0.0
17/01:30am 20.4 19.3 6.7 41 7.0 E 2 6 1 3 1012.1 - 0.0
17/01:00am 21.0 19.4 8.9 46 6.4 SW 7 15 4 8 1012.4 - 0.0
17/12:30am 20.5 18.1 4.1 34 7.9 W 6 7 3 4 1012.1 - 0.0
17/12:00am 21.1 19.8 4.2 33 8.2 CALM 0 0 0 0 1012.4 1011.8 0.0
 
Date/Time
CST
Temp
°C
App
Temp
°C
Dew
Point
Rel
Hum
%
Delta-T
°C
Wind Press
QNH
hPa
Press
MSL
hPa
Rain
since 9 am
mm
Dir
 
Spd
km/h
Gust
km/h
Spd
kts
Gust
kts
16/11:30pm 21.6 19.4 5.5 35 8.0 ENE 6 9 3 5 1012.3 - 0.0
16/11:00pm 22.0 21.2 9.5 45 6.7 E 4 6 2 3 1012.3 - 0.0
16/10:30pm 22.4 21.5 9.2 43 7.1 NNE 4 7 2 4 1012.3 - 0.0
16/10:00pm 24.2 22.5 7.4 34 8.8 SE 6 11 3 6 1012.3 - 0.0
16/09:30pm 23.9 21.6 4.8 29 9.6 ENE 6 7 3 4 1012.0 - 0.0

Other Formats:

Comma delimited format used in spreadsheet applications
http://www.bom.gov.au/fwo/IDD60801/IDD60801.94232.axf

JavaScript Object Notation format (JSON) in row-major order
http://www.bom.gov.au/fwo/IDD60801/IDD60801.94232.json